createdAt,value
2022-08-11T00:00:32.555Z,1012.43
2022-08-11T00:01:32.205Z,1012.43
2022-08-11T00:02:32.423Z,1012.42
2022-08-11T00:03:43.212Z,1012.44
2022-08-11T00:04:34.560Z,1012.45
2022-08-11T00:05:32.914Z,1012.40
2022-08-11T00:06:33.055Z,1012.40
2022-08-11T00:07:33.222Z,1012.38
2022-08-11T00:08:33.393Z,1012.44
2022-08-11T00:09:39.382Z,1012.40
2022-08-11T00:10:34.690Z,1012.33
2022-08-11T00:11:33.829Z,1012.33
2022-08-11T00:12:34.106Z,1012.36
2022-08-11T00:13:34.570Z,1012.34
2022-08-11T00:14:37.667Z,1012.35
2022-08-11T00:15:35.566Z,1012.34
2022-08-11T00:16:35.562Z,1012.36
2022-08-11T00:17:34.954Z,1012.31
2022-08-11T00:18:35.133Z,1012.38
2022-08-11T00:20:12.424Z,1012.38
2022-08-11T00:20:36.550Z,1012.36
2022-08-11T00:22:03.909Z,1012.38
2022-08-11T00:22:37.757Z,1012.39
2022-08-11T00:23:37.063Z,1012.35
2022-08-11T00:24:53.422Z,1012.38
2022-08-11T00:25:37.461Z,1012.37
2022-08-11T00:26:37.563Z,1012.38
2022-08-11T00:27:37.576Z,1012.40
2022-08-11T00:28:37.572Z,1012.41
2022-08-11T00:29:37.102Z,1012.39
2022-08-11T00:30:38.335Z,1012.40
2022-08-11T00:31:37.486Z,1012.43
2022-08-11T00:32:37.898Z,1012.42
2022-08-11T00:33:44.215Z,1012.42
2022-08-11T00:34:39.074Z,1012.42
2022-08-11T00:35:55.088Z,1012.41
2022-08-11T00:36:39.568Z,1012.37
2022-08-11T00:37:38.684Z,1012.41
2022-08-11T00:38:39.077Z,1012.40
2022-08-11T00:39:39.001Z,1012.43
2022-08-11T00:40:39.129Z,1012.41
2022-08-11T00:41:39.287Z,1012.39
2022-08-11T00:42:39.550Z,1012.41
2022-08-11T00:43:40.082Z,1012.45
2022-08-11T00:44:39.829Z,1012.49
2022-08-11T00:45:40.000Z,1012.46
2022-08-11T00:46:40.581Z,1012.46
2022-08-11T00:47:40.378Z,1012.39
2022-08-11T00:48:40.514Z,1012.45
2022-08-11T00:49:40.639Z,1012.46
2022-08-11T00:50:40.779Z,1012.45
2022-08-11T00:51:56.736Z,1012.39
2022-08-11T00:52:42.024Z,1012.42
2022-08-11T00:53:43.072Z,1012.45
2022-08-11T00:54:41.403Z,1012.39
2022-08-11T00:55:41.519Z,1012.43
2022-08-11T00:56:42.742Z,1012.44
2022-08-11T00:57:41.964Z,1012.37
2022-08-11T00:58:42.084Z,1012.45
2022-08-11T00:59:43.074Z,1012.42
2022-08-11T01:00:42.470Z,1012.41
2022-08-11T01:01:42.623Z,1012.44
2022-08-11T01:02:42.742Z,1012.43
2022-08-11T01:03:42.907Z,1012.45
2022-08-11T01:04:43.055Z,1012.46
2022-08-11T01:05:43.207Z,1012.44
2022-08-11T01:06:44.076Z,1012.46
2022-08-11T01:08:01.334Z,1012.51
2022-08-11T01:08:44.673Z,1012.41
2022-08-11T01:09:43.912Z,1012.45
2022-08-11T01:10:44.162Z,1012.46
2022-08-11T01:11:55.439Z,1012.49
2022-08-11T01:12:46.079Z,1012.43
2022-08-11T01:13:44.683Z,1012.50
2022-08-11T01:14:44.832Z,1012.36
2022-08-11T01:15:57.025Z,1012.38
2022-08-11T01:16:46.171Z,1012.41
2022-08-11T01:17:45.591Z,1012.34
2022-08-11T01:18:45.598Z,1012.38
2022-08-11T01:20:48.123Z,1012.41
2022-08-11T01:20:49.606Z,1012.35
2022-08-11T01:21:47.137Z,1012.35
2022-08-11T01:22:46.596Z,1012.39
2022-08-11T01:23:47.082Z,1012.39
2022-08-11T01:24:46.722Z,1012.39
2022-08-11T01:25:57.690Z,1012.36
2022-08-11T01:26:48.063Z,1012.45
2022-08-11T01:27:47.302Z,1012.38
2022-08-11T01:28:47.432Z,1012.37
2022-08-11T01:29:49.339Z,1012.37
2022-08-11T01:30:47.763Z,1012.42
2022-08-11T01:31:49.584Z,1012.39
2022-08-11T01:32:48.172Z,1012.43
2022-08-11T01:33:49.084Z,1012.37
2022-08-11T01:34:48.594Z,1012.42
2022-08-11T01:35:48.611Z,1012.48
2022-08-11T01:36:53.482Z,1012.44
2022-08-11T01:37:49.886Z,1012.47
2022-08-11T01:38:50.086Z,1012.46
2022-08-11T01:39:49.408Z,1012.48
2022-08-11T01:40:49.573Z,1012.42
2022-08-11T01:41:49.738Z,1012.44
2022-08-11T01:42:49.867Z,1012.39
2022-08-11T01:43:50.081Z,1012.42
2022-08-11T01:44:50.201Z,1012.43
2022-08-11T01:45:50.335Z,1012.41
2022-08-11T01:46:50.447Z,1012.41
2022-08-11T01:47:52.591Z,1012.38
2022-08-11T01:48:50.880Z,1012.37
2022-08-11T01:50:09.700Z,1012.41
2022-08-11T01:50:52.229Z,1012.41
2022-08-11T01:51:51.421Z,1012.38
2022-08-11T01:52:51.565Z,1012.40
2022-08-11T01:53:52.595Z,1012.48
2022-08-11T01:54:52.589Z,1012.47
2022-08-11T01:55:52.136Z,1012.47
2022-08-11T01:56:53.089Z,1012.51
2022-08-11T01:57:52.585Z,1012.46
2022-08-11T01:58:52.713Z,1012.49
2022-08-11T01:59:52.836Z,1012.52
2022-08-11T02:00:53.068Z,1012.48
2022-08-11T02:01:53.220Z,1012.46
2022-08-11T02:02:53.388Z,1012.51
2022-08-11T02:03:54.090Z,1012.48
2022-08-11T02:04:54.614Z,1012.48
2022-08-11T02:05:53.870Z,1012.55
2022-08-11T02:06:54.007Z,1012.55
2022-08-11T02:07:54.150Z,1012.52
2022-08-11T02:08:54.360Z,1012.51
2022-08-11T02:09:54.520Z,1012.52
2022-08-11T02:10:55.600Z,1012.47
2022-08-11T02:11:54.813Z,1012.49
2022-08-11T02:12:55.949Z,1012.50
2022-08-11T02:13:55.117Z,1012.52
2022-08-11T02:15:05.412Z,1012.52
2022-08-11T02:15:56.389Z,1012.47
2022-08-11T02:16:55.509Z,1012.48
2022-08-11T02:17:55.680Z,1012.44
2022-08-11T02:18:55.857Z,1012.47
2022-08-11T02:19:56.017Z,1012.42
2022-08-11T02:20:56.169Z,1012.43
2022-08-11T02:21:57.315Z,1012.48
2022-08-11T02:22:56.444Z,1012.49
2022-08-11T02:24:05.325Z,1012.47
2022-08-11T02:24:57.727Z,1012.49
2022-08-11T02:25:57.115Z,1012.52
2022-08-11T02:26:57.029Z,1012.51
2022-08-11T02:27:57.181Z,1012.50
2022-08-11T02:28:57.344Z,1012.49
2022-08-11T02:29:57.505Z,1012.50
2022-08-11T02:30:57.662Z,1012.53
2022-08-11T02:32:08.354Z,1012.53
2022-08-11T02:32:58.962Z,1012.50
2022-08-11T02:33:58.203Z,1012.48
2022-08-11T02:34:59.367Z,1012.54
2022-08-11T02:35:59.108Z,1012.52
2022-08-11T02:36:58.770Z,1012.51
2022-08-11T02:37:58.906Z,1012.51
2022-08-11T02:38:59.111Z,1012.49
2022-08-11T02:39:59.297Z,1012.46
2022-08-11T02:40:59.625Z,1012.46
2022-08-11T02:42:00.612Z,1012.42
2022-08-11T02:42:59.846Z,1012.44
2022-08-11T02:44:00.020Z,1012.48
2022-08-11T02:45:01.105Z,1012.41
2022-08-11T02:46:00.376Z,1012.38
2022-08-11T02:47:00.520Z,1012.43
2022-08-11T02:48:00.669Z,1012.42
2022-08-11T02:49:01.843Z,1012.42
2022-08-11T02:50:06.526Z,1012.43
2022-08-11T02:51:02.131Z,1012.43
2022-08-11T02:52:01.271Z,1012.36
2022-08-11T02:53:01.444Z,1012.35
2022-08-11T02:54:01.614Z,1012.36
2022-08-11T02:55:02.610Z,1012.42
2022-08-11T02:56:01.991Z,1012.38
2022-08-11T02:57:02.157Z,1012.45
2022-08-11T02:58:02.343Z,1012.38
2022-08-11T02:59:02.508Z,1012.47
2022-08-11T03:00:02.651Z,1012.39
2022-08-11T03:01:02.795Z,1012.43
2022-08-11T03:02:05.000Z,1012.44
2022-08-11T03:03:03.118Z,1012.39
2022-08-11T03:04:03.244Z,1012.42
2022-08-11T03:05:03.629Z,1012.40
2022-08-11T03:06:04.112Z,1012.41
2022-08-11T03:07:03.733Z,1012.36
2022-08-11T03:08:04.613Z,1012.47
2022-08-11T03:09:04.101Z,1012.53
2022-08-11T03:10:04.623Z,1012.52
2022-08-11T03:11:04.374Z,1012.48
2022-08-11T03:12:04.504Z,1012.52
2022-08-11T03:13:04.649Z,1012.46
2022-08-11T03:14:04.815Z,1012.47
2022-08-11T03:15:04.963Z,1012.43
2022-08-11T03:16:05.100Z,1012.40
2022-08-11T03:17:06.115Z,1012.49
2022-08-11T03:18:05.466Z,1012.50
2022-08-11T03:19:05.590Z,1012.53
2022-08-11T03:20:06.131Z,1012.51
2022-08-11T03:21:05.862Z,1012.50
2022-08-11T03:22:06.212Z,1012.55
2022-08-11T03:23:06.183Z,1012.55
2022-08-11T03:24:07.415Z,1012.54
2022-08-11T03:25:09.881Z,1012.60
2022-08-11T03:26:08.889Z,1012.57
2022-08-11T03:27:07.122Z,1012.55
2022-08-11T03:28:07.262Z,1012.51
2022-08-11T03:29:07.411Z,1012.45
2022-08-11T03:30:07.571Z,1012.46
2022-08-11T03:31:07.741Z,1012.48
2022-08-11T03:32:07.911Z,1012.47
2022-08-11T03:33:08.046Z,1012.51
2022-08-11T03:34:08.487Z,1012.47
2022-08-11T03:35:08.418Z,1012.39
2022-08-11T03:36:08.575Z,1012.43
2022-08-11T03:37:16.805Z,1012.44
2022-08-11T03:38:09.980Z,1012.49
2022-08-11T03:39:09.153Z,1012.48
2022-08-11T03:40:09.200Z,1012.44
2022-08-11T03:42:02.241Z,1012.50
2022-08-11T03:42:10.403Z,1012.49
2022-08-11T03:43:10.829Z,1012.43
2022-08-11T03:44:10.141Z,1012.38
2022-08-11T03:45:10.131Z,1012.39
2022-08-11T03:46:10.262Z,1012.42
2022-08-11T03:47:10.390Z,1012.47
2022-08-11T03:48:10.531Z,1012.41
2022-08-11T03:49:10.693Z,1012.45
2022-08-11T03:50:10.911Z,1012.41
2022-08-11T03:51:11.040Z,1012.43
2022-08-11T03:52:11.187Z,1012.46
2022-08-11T03:53:11.312Z,1012.44
2022-08-11T03:54:11.646Z,1012.38
2022-08-11T03:55:11.777Z,1012.38
2022-08-11T03:56:11.943Z,1012.46
2022-08-11T03:57:12.080Z,1012.39
2022-08-11T03:58:12.213Z,1012.39
2022-08-11T03:59:12.362Z,1012.42
2022-08-11T04:00:12.469Z,1012.41
2022-08-11T04:01:12.751Z,1012.38
2022-08-11T04:02:12.930Z,1012.41
2022-08-11T04:03:13.063Z,1012.37
2022-08-11T04:04:13.193Z,1012.37
2022-08-11T04:05:14.134Z,1012.35
2022-08-11T04:06:13.515Z,1012.34
2022-08-11T04:07:17.538Z,1012.32
2022-08-11T04:08:13.793Z,1012.32
2022-08-11T04:09:13.957Z,1012.35
2022-08-11T04:10:14.632Z,1012.34
2022-08-11T04:11:14.315Z,1012.35
2022-08-11T04:12:14.658Z,1012.33
2022-08-11T04:13:15.651Z,1012.34
2022-08-11T04:14:15.142Z,1012.35
2022-08-11T04:15:15.036Z,1012.35
2022-08-11T04:16:15.201Z,1012.26
2022-08-11T04:17:15.345Z,1012.30
2022-08-11T04:18:15.529Z,1012.26
2022-08-11T04:19:15.683Z,1012.30
2022-08-11T04:20:15.825Z,1012.27
2022-08-11T04:21:15.987Z,1012.25
2022-08-11T04:22:17.143Z,1012.27
2022-08-11T04:24:34.607Z,1012.24
2022-08-11T04:24:37.685Z,1012.24
2022-08-11T04:25:18.594Z,1012.30
2022-08-11T04:26:18.885Z,1012.26
2022-08-11T04:27:17.054Z,1012.24
2022-08-11T04:28:29.212Z,1012.29
2022-08-11T04:29:18.367Z,1012.28
2022-08-11T04:30:18.144Z,1012.23
2022-08-11T04:31:50.884Z,1012.21
2022-08-11T04:32:18.934Z,1012.24
2022-08-11T04:33:19.201Z,1012.27
2022-08-11T04:34:18.319Z,1012.20
2022-08-11T04:35:18.476Z,1012.20
2022-08-11T04:36:18.628Z,1012.26
2022-08-11T04:37:18.779Z,1012.19
2022-08-11T04:38:19.642Z,1012.16
2022-08-11T04:39:19.189Z,1012.19
2022-08-11T04:40:19.365Z,1012.12
2022-08-11T04:41:19.531Z,1012.11
2022-08-11T04:42:20.647Z,1012.14
2022-08-11T04:43:20.652Z,1012.10
2022-08-11T04:44:20.046Z,1012.10
2022-08-11T04:45:20.671Z,1012.09
2022-08-11T04:46:20.401Z,1012.08
2022-08-11T04:47:20.535Z,1012.02
2022-08-11T04:48:20.776Z,1012.14
2022-08-11T04:49:26.218Z,1012.11
2022-08-11T04:50:22.143Z,1012.07
2022-08-11T04:51:21.364Z,1012.12
2022-08-11T04:52:22.149Z,1012.06
2022-08-11T04:53:21.630Z,1012.06
2022-08-11T04:54:26.407Z,1012.04
2022-08-11T04:55:23.986Z,1012.10
2022-08-11T04:56:22.664Z,1012.05
2022-08-11T04:57:22.419Z,1012.04
2022-08-11T04:58:31.271Z,1012.00
2022-08-11T04:59:24.160Z,1012.03
2022-08-11T05:00:22.906Z,1012.06
2022-08-11T05:01:23.085Z,1011.99
2022-08-11T05:02:24.153Z,1011.94
2022-08-11T05:03:23.415Z,1011.96
2022-08-11T05:04:23.571Z,1011.87
2022-08-11T05:05:24.653Z,1011.88
2022-08-11T05:06:23.901Z,1011.90
2022-08-11T05:07:24.653Z,1011.82
2022-08-11T05:08:24.417Z,1011.90
2022-08-11T05:09:24.304Z,1011.85
2022-08-11T05:10:24.486Z,1011.81
2022-08-11T05:11:24.629Z,1011.81
2022-08-11T05:12:25.167Z,1011.77
2022-08-11T05:13:24.902Z,1011.78
2022-08-11T05:14:25.656Z,1011.75
2022-08-11T05:15:25.278Z,1011.70
2022-08-11T05:16:26.153Z,1011.57
2022-08-11T05:17:25.719Z,1011.63
2022-08-11T05:18:25.854Z,1011.61
2022-08-11T05:19:26.093Z,1011.47
2022-08-11T05:20:26.672Z,1011.52
2022-08-11T05:21:26.432Z,1011.57
2022-08-11T05:22:26.544Z,1011.50
2022-08-11T05:23:27.168Z,1011.53
2022-08-11T05:24:26.886Z,1011.49
2022-08-11T05:26:25.380Z,1011.41
2022-08-11T05:26:46.285Z,1011.42
2022-08-11T05:27:29.161Z,1011.38
2022-08-11T05:28:27.766Z,1011.36
2022-08-11T05:29:27.870Z,1011.31
2022-08-11T05:30:28.108Z,1011.29
2022-08-11T05:31:28.240Z,1011.29
2022-08-11T05:32:28.377Z,1011.34
2022-08-11T05:33:28.568Z,1011.27
2022-08-11T05:34:28.701Z,1011.18
2022-08-11T05:36:00.031Z,1011.22
2022-08-11T05:36:30.080Z,1011.18
2022-08-11T05:37:29.205Z,1011.17
2022-08-11T05:38:29.350Z,1011.23
2022-08-11T05:39:33.889Z,1011.19
2022-08-11T05:40:30.727Z,1011.17
2022-08-11T05:41:30.665Z,1011.23
2022-08-11T05:42:30.722Z,1011.11
2022-08-11T05:43:31.168Z,1011.11
2022-08-11T05:44:30.511Z,1011.06
2022-08-11T05:46:02.929Z,1011.04
2022-08-11T05:46:31.771Z,1010.99
2022-08-11T05:47:30.994Z,1010.87
2022-08-11T05:48:31.135Z,1010.73
2022-08-11T05:49:31.834Z,1010.68
2022-08-11T05:50:33.194Z,1010.70
2022-08-11T05:51:31.702Z,1010.71
2022-08-11T05:52:32.177Z,1010.77
2022-08-11T05:53:43.668Z,1010.71
2022-08-11T05:54:33.196Z,1010.69
2022-08-11T05:55:33.168Z,1010.67
2022-08-11T05:56:33.173Z,1010.68
2022-08-11T05:57:42.343Z,1010.64
2022-08-11T05:58:36.982Z,1010.68
2022-08-11T05:59:34.007Z,1010.67
2022-08-11T06:00:33.220Z,1010.72
2022-08-11T06:01:33.442Z,1010.77
2022-08-11T06:02:33.523Z,1010.75
2022-08-11T06:03:33.698Z,1010.81
2022-08-11T06:04:33.850Z,1010.80
2022-08-11T06:05:37.213Z,1010.75
2022-08-11T06:06:35.106Z,1010.69
2022-08-11T06:07:49.627Z,1010.74
2022-08-11T06:08:35.473Z,1010.71
2022-08-11T06:09:34.592Z,1010.66
2022-08-11T06:10:35.673Z,1010.64
2022-08-11T06:11:43.190Z,1010.62
2022-08-11T06:12:36.164Z,1010.48
2022-08-11T06:13:35.333Z,1010.55
2022-08-11T06:14:35.460Z,1010.51
2022-08-11T06:15:35.707Z,1010.55
2022-08-11T06:16:36.227Z,1010.52
2022-08-11T06:17:39.091Z,1010.45
2022-08-11T06:18:36.177Z,1010.43
2022-08-11T06:19:36.319Z,1010.39
2022-08-11T06:20:36.441Z,1009.91
2022-08-11T06:21:36.567Z,1009.38
2022-08-11T06:22:37.836Z,1009.25
2022-08-11T06:23:36.903Z,1009.40
2022-08-11T06:24:37.067Z,1009.58
2022-08-11T06:25:37.183Z,1009.66
2022-08-11T06:26:49.626Z,1009.73
2022-08-11T06:27:40.196Z,1009.74
2022-08-11T06:28:37.791Z,1009.83
2022-08-11T06:29:47.911Z,1009.87
2022-08-11T06:30:39.155Z,1009.89
2022-08-11T06:31:38.388Z,1009.91
2022-08-11T06:32:38.711Z,1009.90
2022-08-11T06:33:38.725Z,1009.93
2022-08-11T06:34:39.687Z,1009.94
2022-08-11T06:35:39.052Z,1009.94
2022-08-11T06:36:39.237Z,1009.93
2022-08-11T06:37:39.378Z,1009.87
2022-08-11T06:38:39.537Z,1009.87
2022-08-11T06:39:39.722Z,1009.84
2022-08-11T06:40:39.906Z,1009.85
2022-08-11T06:41:40.069Z,1009.82
2022-08-11T06:42:40.212Z,1009.74
2022-08-11T06:43:40.372Z,1009.75
2022-08-11T06:44:42.235Z,1009.72
2022-08-11T06:45:40.698Z,1009.72
2022-08-11T06:46:40.851Z,1009.65
2022-08-11T06:47:40.979Z,1009.63
2022-08-11T06:48:41.690Z,1009.65
2022-08-11T06:49:41.299Z,1009.62
2022-08-11T06:50:42.218Z,1009.59
2022-08-11T06:51:41.819Z,1009.50
2022-08-11T06:52:42.266Z,1009.15
2022-08-11T06:53:41.933Z,1008.94
2022-08-11T06:54:43.690Z,1008.97
2022-08-11T06:55:56.597Z,1008.81
2022-08-11T06:56:43.651Z,1008.37
2022-08-11T06:57:43.211Z,1007.91
2022-08-11T06:58:43.099Z,1007.85
2022-08-11T06:59:44.296Z,1007.53
2022-08-11T07:00:43.432Z,1007.00
2022-08-11T07:01:43.664Z,1006.17
2022-08-11T07:02:43.755Z,1005.39
2022-08-11T07:03:44.696Z,1004.83
2022-08-11T07:04:44.102Z,1004.57
2022-08-11T07:05:44.267Z,1004.94
2022-08-11T07:06:50.886Z,1005.48
2022-08-11T07:07:45.547Z,1005.85
2022-08-11T07:08:44.781Z,1005.86
2022-08-11T07:09:44.949Z,1005.93
2022-08-11T07:10:45.086Z,1006.13
2022-08-11T07:11:45.320Z,1006.38
2022-08-11T07:12:45.480Z,1006.64
2022-08-11T07:13:46.205Z,1006.81
2022-08-11T07:14:45.861Z,1006.78
2022-08-11T07:16:11.643Z,1006.75
2022-08-11T07:16:47.702Z,1006.84
2022-08-11T07:17:47.209Z,1006.97
2022-08-11T07:18:47.200Z,1007.06
2022-08-11T07:19:46.611Z,1007.12
2022-08-11T07:20:46.769Z,1007.15
2022-08-11T07:22:03.157Z,1007.29
2022-08-11T07:22:48.049Z,1007.28
2022-08-11T07:23:47.713Z,1007.36
2022-08-11T07:25:01.457Z,1007.35
2022-08-11T07:25:49.228Z,1007.37
2022-08-11T07:26:47.833Z,1007.29
2022-08-11T07:27:48.003Z,1007.12
2022-08-11T07:28:48.216Z,1007.24
2022-08-11T07:29:48.370Z,1007.34
2022-08-11T07:30:48.539Z,1007.39
2022-08-11T07:31:50.209Z,1007.52
2022-08-11T07:32:49.707Z,1007.57
2022-08-11T07:34:05.516Z,1007.50
2022-08-11T07:34:50.714Z,1007.31
2022-08-11T07:35:49.347Z,1007.33
2022-08-11T07:36:49.530Z,1007.14
2022-08-11T07:37:50.209Z,1006.99
2022-08-11T07:38:50.904Z,1007.12
2022-08-11T07:39:50.101Z,1007.23
2022-08-11T07:40:50.192Z,1007.32
2022-08-11T07:41:51.221Z,1007.36
2022-08-11T07:42:50.503Z,1007.28
2022-08-11T07:43:50.690Z,1007.21
2022-08-11T07:44:50.863Z,1007.16
2022-08-11T07:45:51.712Z,1007.21
2022-08-11T07:46:52.215Z,1007.33
2022-08-11T07:47:51.385Z,1007.39
2022-08-11T07:48:51.562Z,1007.39
2022-08-11T07:49:52.227Z,1007.47
2022-08-11T07:50:56.018Z,1007.51
2022-08-11T07:51:53.092Z,1007.56
2022-08-11T07:52:52.226Z,1007.63
2022-08-11T07:53:58.748Z,1007.62
2022-08-11T07:54:53.617Z,1007.63
2022-08-11T07:55:53.716Z,1007.59
2022-08-11T07:56:54.732Z,1007.65
2022-08-11T07:58:14.304Z,1007.68
2022-08-11T07:58:59.228Z,1007.75
2022-08-11T08:00:03.491Z,1007.71
2022-08-11T08:00:54.809Z,1007.88
2022-08-11T08:01:53.979Z,1007.85
2022-08-11T08:02:54.726Z,1007.86
2022-08-11T08:03:55.221Z,1007.88
2022-08-11T08:04:54.469Z,1007.87
2022-08-11T08:05:54.656Z,1007.89
2022-08-11T08:06:54.809Z,1007.89
2022-08-11T08:07:55.727Z,1007.97
2022-08-11T08:08:55.175Z,1007.89
2022-08-11T08:09:55.343Z,1007.95
2022-08-11T08:10:55.469Z,1007.96
2022-08-11T08:11:55.740Z,1007.95
2022-08-11T08:12:55.773Z,1007.92
2022-08-11T08:13:56.725Z,1007.94
2022-08-11T08:14:56.097Z,1007.84
2022-08-11T08:15:56.256Z,1007.91
2022-08-11T08:16:56.505Z,1007.85
2022-08-11T08:18:09.439Z,1007.87
2022-08-11T08:18:58.729Z,1007.93
2022-08-11T08:19:57.734Z,1007.89
2022-08-11T08:20:58.236Z,1007.92
2022-08-11T08:22:04.381Z,1007.92
2022-08-11T08:22:58.585Z,1007.93
2022-08-11T08:23:57.790Z,1007.93
2022-08-11T08:24:57.933Z,1007.97
2022-08-11T08:25:58.124Z,1007.95
2022-08-11T08:26:58.282Z,1007.92
2022-08-11T08:27:58.427Z,1007.97
2022-08-11T08:28:59.232Z,1007.94
2022-08-11T08:29:59.729Z,1007.96
2022-08-11T08:30:58.984Z,1007.92
2022-08-11T08:31:59.215Z,1007.96
2022-08-11T08:32:59.427Z,1007.92
2022-08-11T08:33:59.562Z,1007.91
2022-08-11T08:34:59.710Z,1007.92
2022-08-11T08:35:59.856Z,1007.94
2022-08-11T08:37:00.008Z,1008.03
2022-08-11T08:38:00.743Z,1007.99
2022-08-11T08:39:00.407Z,1008.01
2022-08-11T08:40:00.574Z,1008.00
2022-08-11T08:41:01.246Z,1008.00
2022-08-11T08:42:01.259Z,1007.96
2022-08-11T08:43:01.038Z,1008.00
2022-08-11T08:44:27.366Z,1008.02
2022-08-11T08:45:03.353Z,1008.04
2022-08-11T08:46:01.607Z,1008.04
2022-08-11T08:47:01.792Z,1008.07
2022-08-11T08:48:02.739Z,1008.05
2022-08-11T08:49:02.146Z,1008.05
2022-08-11T08:50:02.322Z,1007.98
2022-08-11T08:51:02.515Z,1008.05
2022-08-11T08:52:29.473Z,1007.99
2022-08-11T08:53:05.754Z,1007.99
2022-08-11T08:54:03.001Z,1008.04
2022-08-11T08:55:03.162Z,1007.94
2022-08-11T08:56:03.331Z,1008.04
2022-08-11T08:57:03.489Z,1007.97
2022-08-11T08:58:03.629Z,1007.97
2022-08-11T08:59:03.796Z,1007.95
2022-08-11T09:00:04.747Z,1007.97
2022-08-11T09:01:04.169Z,1007.94
2022-08-11T09:02:04.758Z,1007.93
2022-08-11T09:03:22.923Z,1007.91
2022-08-11T09:04:11.444Z,1007.94
2022-08-11T09:05:06.938Z,1007.94
2022-08-11T09:06:05.170Z,1007.91
2022-08-11T09:07:05.292Z,1007.75
2022-08-11T09:08:05.762Z,1007.61
2022-08-11T09:09:05.636Z,1007.53
2022-08-11T09:10:06.749Z,1007.51
2022-08-11T09:11:09.414Z,1007.44
2022-08-11T09:12:07.137Z,1007.43
2022-08-11T09:13:07.250Z,1007.48
2022-08-11T09:14:10.430Z,1007.41
2022-08-11T09:15:09.324Z,1007.40
2022-08-11T09:16:07.262Z,1007.25
2022-08-11T09:17:07.161Z,1007.26
2022-08-11T09:18:07.319Z,1007.18
2022-08-11T09:19:07.455Z,1007.19
2022-08-11T09:20:08.692Z,1006.95
2022-08-11T09:21:07.920Z,1006.73
2022-08-11T09:22:08.754Z,1006.55
2022-08-11T09:24:17.033Z,1006.35
2022-08-11T09:25:10.612Z,1006.43
2022-08-11T09:26:09.268Z,1006.38
2022-08-11T09:27:09.755Z,1006.46
2022-08-11T09:28:09.265Z,1006.51
2022-08-11T09:29:09.770Z,1006.54
2022-08-11T09:30:09.515Z,1006.59
2022-08-11T09:31:09.691Z,1006.63
2022-08-11T09:32:09.836Z,1006.63
2022-08-11T09:33:09.978Z,1006.75
2022-08-11T09:34:10.161Z,1006.83
2022-08-11T09:35:11.256Z,1006.88
2022-08-11T09:36:10.481Z,1007.00
2022-08-11T09:37:10.627Z,1007.00
2022-08-11T09:38:10.789Z,1006.96
2022-08-11T09:39:11.071Z,1007.00
2022-08-11T09:40:11.119Z,1007.02
2022-08-11T09:41:11.772Z,1007.19
2022-08-11T09:42:16.639Z,1007.18
2022-08-11T09:43:12.790Z,1007.19
2022-08-11T09:44:12.760Z,1007.26
2022-08-11T09:45:12.212Z,1007.29
2022-08-11T09:46:12.380Z,1007.28
2022-08-11T09:47:12.508Z,1007.34
2022-08-11T09:48:13.259Z,1007.35
2022-08-11T09:49:13.004Z,1007.32
2022-08-11T09:50:13.228Z,1007.38
2022-08-11T09:51:13.775Z,1007.39
2022-08-11T09:52:14.267Z,1007.37
2022-08-11T09:53:36.083Z,1007.38
2022-08-11T09:54:15.964Z,1007.43
2022-08-11T09:55:14.762Z,1007.40
2022-08-11T09:56:14.418Z,1007.40
2022-08-11T09:57:14.546Z,1007.45
2022-08-11T09:58:42.432Z,1007.42
2022-08-11T09:59:15.911Z,1007.47
2022-08-11T10:00:15.510Z,1007.54
2022-08-11T10:01:15.339Z,1007.53
2022-08-11T10:02:15.551Z,1007.58
2022-08-11T10:03:15.696Z,1007.56
2022-08-11T10:04:15.821Z,1007.64
2022-08-11T10:05:15.961Z,1007.67
2022-08-11T10:06:16.110Z,1007.60
2022-08-11T10:07:16.360Z,1007.46
2022-08-11T10:08:17.278Z,1007.41
2022-08-11T10:09:16.685Z,1007.36
2022-08-11T10:10:17.813Z,1007.28
2022-08-11T10:11:17.789Z,1007.23
2022-08-11T10:12:18.291Z,1007.14
2022-08-11T10:14:31.260Z,1007.14
2022-08-11T10:14:33.368Z,1007.13
2022-08-11T10:15:18.908Z,1007.03
2022-08-11T10:16:18.021Z,1007.02
2022-08-11T10:17:18.175Z,1007.08
2022-08-11T10:18:18.381Z,1007.03
2022-08-11T10:19:18.544Z,1007.14
2022-08-11T10:20:22.681Z,1007.18
2022-08-11T10:21:20.880Z,1007.17
2022-08-11T10:22:20.100Z,1007.22
2022-08-11T10:23:19.346Z,1007.19
2022-08-11T10:24:19.504Z,1007.24
2022-08-11T10:25:20.131Z,1007.23
2022-08-11T10:26:20.778Z,1007.23
2022-08-11T10:27:20.787Z,1007.27
2022-08-11T10:28:36.369Z,1007.27
2022-08-11T10:29:21.370Z,1007.28
2022-08-11T10:30:21.500Z,1007.29
2022-08-11T10:31:20.617Z,1007.34
2022-08-11T10:32:21.277Z,1007.30
2022-08-11T10:33:37.071Z,1007.33
2022-08-11T10:34:22.135Z,1007.31
2022-08-11T10:35:21.363Z,1007.28
2022-08-11T10:36:21.516Z,1007.25
2022-08-11T10:37:21.704Z,1007.26
2022-08-11T10:38:21.890Z,1007.20
2022-08-11T10:39:22.130Z,1007.17
2022-08-11T10:40:22.784Z,1007.17
2022-08-11T10:41:22.414Z,1007.18
2022-08-11T10:42:41.440Z,1007.15
2022-08-11T10:44:02.403Z,1007.16
2022-08-11T10:44:24.022Z,1007.15
2022-08-11T10:45:23.785Z,1007.12
2022-08-11T10:46:29.563Z,1007.07
2022-08-11T10:47:24.418Z,1007.15
2022-08-11T10:48:23.569Z,1007.09
2022-08-11T10:49:23.802Z,1007.19
2022-08-11T10:50:23.967Z,1007.16
2022-08-11T10:51:48.005Z,1007.14
2022-08-11T10:52:25.266Z,1007.14
2022-08-11T10:53:24.385Z,1007.15
2022-08-11T10:54:24.574Z,1007.17
2022-08-11T10:55:24.807Z,1007.19
2022-08-11T10:56:24.945Z,1007.10
2022-08-11T10:57:25.115Z,1007.12
2022-08-11T10:58:25.325Z,1007.04
2022-08-11T10:59:25.448Z,1007.05
2022-08-11T11:00:25.644Z,1006.88
2022-08-11T11:01:26.450Z,1006.76
2022-08-11T11:02:25.895Z,1006.56
2022-08-11T11:03:26.076Z,1006.52
2022-08-11T11:04:26.802Z,1006.34
2022-08-11T11:05:26.807Z,1006.23
2022-08-11T11:06:29.329Z,1006.00
2022-08-11T11:07:26.770Z,1005.96
2022-08-11T11:08:27.806Z,1005.92
2022-08-11T11:09:27.797Z,1005.93
2022-08-11T11:10:27.313Z,1005.88
2022-08-11T11:11:27.331Z,1005.92
2022-08-11T11:12:27.815Z,1005.85
2022-08-11T11:13:27.714Z,1005.91
2022-08-11T11:14:27.840Z,1005.92
2022-08-11T11:15:27.999Z,1005.91
2022-08-11T11:16:28.800Z,1005.93
2022-08-11T11:17:28.333Z,1005.99
2022-08-11T11:18:28.495Z,1005.96
2022-08-11T11:19:28.605Z,1005.96
2022-08-11T11:20:36.587Z,1006.05
2022-08-11T11:21:30.806Z,1006.07
2022-08-11T11:22:29.192Z,1006.11
2022-08-11T11:23:29.363Z,1006.08
2022-08-11T11:24:30.302Z,1006.10
2022-08-11T11:25:30.331Z,1006.16
2022-08-11T11:26:29.796Z,1006.16
2022-08-11T11:27:30.805Z,1006.13
2022-08-11T11:28:30.169Z,1006.17
2022-08-11T11:29:30.323Z,1006.14
2022-08-11T11:30:31.310Z,1006.20
2022-08-11T11:31:30.666Z,1006.14
2022-08-11T11:32:30.819Z,1006.16
2022-08-11T11:33:30.955Z,1006.10
2022-08-11T11:34:31.823Z,1006.19
2022-08-11T11:35:31.806Z,1006.05
2022-08-11T11:36:32.310Z,1006.13
2022-08-11T11:37:31.815Z,1006.18
2022-08-11T11:38:31.755Z,1006.12
2022-08-11T11:39:32.345Z,1006.17
2022-08-11T11:40:32.854Z,1006.10
2022-08-11T11:41:32.225Z,1006.12
2022-08-11T11:42:32.480Z,1006.01
2022-08-11T11:43:32.584Z,1006.09
2022-08-11T11:44:33.376Z,1006.07
2022-08-11T11:45:32.904Z,1006.06
2022-08-11T11:46:33.002Z,1006.08
2022-08-11T11:47:34.329Z,1006.00
2022-08-11T11:48:34.314Z,1006.00
2022-08-11T11:49:33.518Z,1005.98
2022-08-11T11:50:34.316Z,1005.95
2022-08-11T11:51:33.807Z,1005.92
2022-08-11T11:52:34.067Z,1005.87
2022-08-11T11:53:34.116Z,1005.81
2022-08-11T11:54:34.234Z,1005.84
2022-08-11T11:55:34.495Z,1005.67
2022-08-11T11:56:35.326Z,1005.74
2022-08-11T11:57:35.317Z,1005.72
2022-08-11T11:58:34.920Z,1005.75
2022-08-11T11:59:35.337Z,1005.71
2022-08-11T12:00:35.370Z,1005.65
2022-08-11T12:01:35.319Z,1005.64
2022-08-11T12:02:35.460Z,1005.60
2022-08-11T12:03:36.671Z,1005.62
2022-08-11T12:04:35.801Z,1005.70
2022-08-11T12:05:35.954Z,1005.66
2022-08-11T12:06:37.608Z,1005.62
2022-08-11T12:07:36.336Z,1005.57
2022-08-11T12:08:36.473Z,1005.68